Airfield :
LOGIN :

Register | Disclaimer

   EN    FR    IT 

 










Legend :    VFR   Marginal VFR   IFR   Intensive IFR   Very Intensive IFR
Visi :
Ceiling :
>= 8 km
>= 3000ft
5 to 8 km
1000 to 3000 ft
1500m to 5 km
500 to 1000 ft
800 to 1500m
200 to 500 ft
< 800m
< 200 ft
Symbols :   Thunderstorms  Fog  Heavy snow  Heavy precipitations  Wind > 20 kt
SIGMETs :     Misc.  Thunderstorms  Icing  Turbulence  Mountain Waves  Volcanic Ashes






- Airport Elevation : 19 ft
- IATA code : BEB


EGPL - Benbecula

CURRENT METAR :
  • 291350Z 15019KT CAVOK 21/10 Q1022

EXPIRED METARs :
  • 291320Z AUTO 15020KT 9999 NCD 22/11 Q1023
  • 291250Z AUTO 15019KT 9999 NCD 21/12 Q1023
  • 291220Z AUTO 14017KT 9999 NCD 21/12 Q1023
  • 291150Z 15019KT CAVOK 21/13 Q1024
  • 291120Z 15018KT CAVOK 20/12 Q1024

TAF TAF EGPL
Valid from the 29 at 09:00 until the 29 at 18:00 UTC


290757Z 2909/2918 16015KT 9999 FEW040
PROB40
TEMPO 2909/2918 17018G28KT
ATIS : +44 1870 604 818



MET'MAP, your aeronautical weather chart ! - Copyright ORBIFLY December 2007 - Disclaimer

ORBIFLY MET'MAP TEAM :

Programming & Development : Alexandra Zaïnal
Concept & original design : Baudouin d'Aumeries
Assistance for programming : Marc-Olivier Méhu
Technical & hardware support : Manuel Goepfert

Contact : metmap@orbifly.com




SOURCES & CREDITS :

   NOAA